Time;durP1;ratioP1;P1;durP2;ratioP2;P2;SDS_P1;SDS_P2;PMS_P1;PMS_P2;Temp;Humidity;BMP_temperature;BMP_pressure;BME280_temperature;BME280_humidity;BME280_pressure;Samples;Min_cycle;Max_cycle;Signal;HPM_P1;HPM_P2
2023/08/06 00:01:33;;;;;;;;;0.00;0.00;;;;;16.87;70.91;100444.59;5038500;28;45314;-73
2023/08/06 00:04:00;;;;;;;;;0.00;0.00;;;;;17.46;70.49;100530.19;5036803;28;47017;-74
2023/08/06 00:06:26;;;;;;;;;0.00;0.00;;;;;17.33;70.40;100517.34;5038223;28;45290;-75
2023/08/06 00:08:51;;;;;;;;;0.00;0.00;;;;;16.97;70.02;100462.84;5038402;28;45495;-73
2023/08/06 00:11:17;;;;;;;;;0.00;0.00;;;;;17.21;70.37;100517.69;5038645;28;45388;-75
2023/08/06 00:13:42;;;;;;;;;0.00;0.00;;;;;16.92;70.19;100466.47;5038787;28;45915;-74
2023/08/06 00:16:10;;;;;;;;;2.00;0.00;;;;;17.26;70.30;100530.81;5038106;28;45440;-73
2023/08/06 00:18:36;;;;;;;;;0.00;0.00;;;;;17.16;70.13;100509.03;5037117;28;45399;-75
2023/08/06 00:21:02;;;;;;;;;0.00;0.00;;;;;16.64;70.53;100441.69;5039278;28;45342;-74
2023/08/06 00:23:27;;;;;;;;;0.33;0.00;;;;;17.33;70.32;100554.41;5039090;28;46190;-73
2023/08/06 00:25:53;;;;;;;;;0.67;0.00;;;;;17.29;70.13;100539.50;5039180;28;45476;-73
2023/08/06 00:28:18;;;;;;;;;0.00;0.00;;;;;17.12;69.96;100510.88;5037888;28;45731;-72
2023/08/06 00:30:44;;;;;;;;;0.33;0.00;;;;;17.30;69.26;100545.69;5041439;28;45393;-72
2023/08/06 00:33:09;;;;;;;;;0.00;0.00;;;;;17.36;69.09;100570.19;5038763;28;45579;-72
2023/08/06 00:35:35;;;;;;;;;0.00;0.00;;;;;17.33;69.09;100567.63;5037370;28;45688;-71
2023/08/06 00:38:34;;;;;;;;;0.00;0.00;;;;;17.22;69.06;100550.31;5038786;28;45246;-73
2023/08/06 00:40:59;;;;;;;;;0.33;0.00;;;;;17.30;68.35;100558.94;5030188;28;45486;-71
2023/08/06 00:43:28;;;;;;;;;0.00;0.00;;;;;17.30;68.10;100558.94;5038076;28;45417;-73
2023/08/06 00:45:56;;;;;;;;;0.00;0.00;;;;;17.46;68.26;100591.97;5037676;28;45338;-73
2023/08/06 00:48:21;;;;;;;;;2.00;0.00;;;;;17.49;68.43;100598.97;5037054;28;45410;-72
2023/08/06 00:50:47;;;;;;;;;0.00;0.00;;;;;17.50;68.67;100608.66;5037253;28;45381;-71
2023/08/06 00:53:13;;;;;;;;;0.00;0.00;;;;;17.37;68.92;100582.53;5037412;28;45474;-71
2023/08/06 00:55:39;;;;;;;;;0.00;0.00;;;;;17.47;68.77;100606.97;5035542;28;45565;-72
2023/08/06 00:58:14;;;;;;;;;1.00;1.00;;;;;17.46;68.76;100605.19;5037045;28;45515;-72
2023/08/06 01:00:39;;;;;;;;;0.00;0.00;;;;;17.44;68.73;100617.66;5037273;28;45468;-71
2023/08/06 01:03:05;;;;;;;;;3.33;1.00;;;;;17.44;68.76;100622.03;5037313;28;46083;-71
2023/08/06 01:05:31;;;;;;;;;0.00;0.00;;;;;17.24;68.84;100590.84;5034961;28;45408;-72
2023/08/06 01:08:34;;;;;;;;;0.00;0.00;;;;;17.40;69.21;100620.41;5035781;28;45508;-72
2023/08/06 01:11:18;;;;;;;;;0.00;0.00;;;;;17.40;69.03;100620.41;5038085;28;45517;-72
2023/08/06 01:13:49;;;;;;;;;0.00;0.00;;;;;17.37;69.26;100627.53;5030015;28;45437;-70
2023/08/06 01:16:18;;;;;;;;;0.00;0.00;;;;;17.36;69.19;100636.38;5035808;28;45552;-70
2023/08/06 01:18:49;;;;;;;;;2.00;0.00;;;;;17.24;69.01;100619.97;5037452;28;45841;-70
2023/08/06 01:21:16;;;;;;;;;0.00;0.00;;;;;17.27;69.17;100638.41;5038093;28;45508;-71
2023/08/06 01:23:43;;;;;;;;;0.00;0.00;;;;;17.28;69.15;100637.50;5036742;28;46462;-70
2023/08/06 01:26:37;;;;;;;;;2.00;0.67;;;;;17.05;69.20;100620.44;5036520;28;45404;-72
2023/08/06 01:29:52;;;;;;;;;2.00;0.00;;;;;17.20;69.17;100648.28;5037181;28;45473;-75
2023/08/06 01:35:42;;;;;;;;;1.00;1.00;;;;;17.05;69.26;100654.84;4994551;28;45868;-73
2023/08/06 01:38:08;;;;;;;;;1.00;1.00;;;;;17.05;68.95;100654.00;4996044;28;45551;-71
2023/08/06 01:40:35;;;;;;;;;2.67;1.00;;;;;17.01;68.84;100644.38;5020609;28;45418;-73
2023/08/06 01:43:01;;;;;;;;;3.00;1.67;;;;;17.08;68.44;100680.34;5036501;28;45534;-70
2023/08/06 01:45:26;;;;;;;;;2.33;1.33;;;;;17.05;68.70;100686.59;5035800;28;45441;-73
2023/08/06 01:47:52;;;;;;;;;3.00;1.67;;;;;17.02;68.45;100677.88;5035762;28;45545;-71
2023/08/06 01:50:17;;;;;;;;;1.33;1.00;;;;;17.01;68.38;100669.06;5037082;28;45477;-73
2023/08/06 01:52:50;;;;;;;;;1.33;1.33;;;;;17.04;67.73;100686.66;5037552;28;45479;-74
2023/08/06 01:55:29;;;;;;;;;0.00;0.00;;;;;17.06;67.79;100696.31;5039043;28;45980;-72
2023/08/06 01:57:57;;;;;;;;;2.00;1.00;;;;;16.97;67.45;100680.66;5038090;28;45616;-71
2023/08/06 02:00:23;;;;;;;;;1.00;1.00;;;;;17.01;67.05;100682.28;5035913;28;45352;-70
2023/08/06 02:02:48;;;;;;;;;1.33;1.33;;;;;16.84;66.98;100668.63;5038321;28;45545;-73
2023/08/06 02:05:14;;;;;;;;;3.00;1.00;;;;;17.01;67.12;100710.53;5038193;28;46108;-72
2023/08/06 02:07:39;;;;;;;;;1.67;1.67;;;;;16.99;67.19;100720.28;5036665;28;45328;-71
2023/08/06 02:10:06;;;;;;;;;3.33;1.33;;;;;16.99;67.03;100734.41;5036798;28;45501;-72
2023/08/06 02:12:31;;;;;;;;;2.67;2.00;;;;;16.97;66.94;100722.97;5036561;28;45362;-71
2023/08/06 02:14:57;;;;;;;;;3.33;2.00;;;;;16.97;66.94;100727.41;5036120;28;45535;-71
2023/08/06 02:17:22;;;;;;;;;1.67;1.33;;;;;16.70;66.98;100687.44;5036054;28;45433;-72
2023/08/06 02:19:48;;;;;;;;;1.00;1.00;;;;;16.98;67.02;100729.13;5036381;28;45516;-69
2023/08/06 02:22:13;;;;;;;;;4.67;2.00;;;;;16.89;66.95;100704.63;5036561;28;45488;-72
2023/08/06 02:24:39;;;;;;;;;2.00;2.00;;;;;16.97;66.65;100727.41;5037514;28;45745;-73
2023/08/06 02:27:04;;;;;;;;;4.67;2.00;;;;;16.90;66.97;100714.31;5037785;28;45733;-72
2023/08/06 02:29:30;;;;;;;;;2.00;2.00;;;;;16.95;67.13;100741.53;5040091;28;45444;-73
2023/08/06 02:31:55;;;;;;;;;2.00;2.00;;;;;16.76;67.22;100708.47;5055686;28;45490;-72
2023/08/06 02:34:21;;;;;;;;;3.33;1.67;;;;;16.85;67.13;100737.38;5039006;28;46286;-72
2023/08/06 02:36:46;;;;;;;;;3.00;3.00;;;;;16.91;67.47;100750.44;5039386;28;45311;-72
2023/08/06 02:39:12;;;;;;;;;2.00;2.00;;;;;16.76;67.55;100726.97;5039587;28;45486;-71
2023/08/06 02:41:37;;;;;;;;;4.00;2.00;;;;;16.88;67.53;100747.00;5040291;28;45491;-72
2023/08/06 02:44:03;;;;;;;;;4.33;2.00;;;;;16.89;67.54;100744.31;5039530;28;45489;-73
2023/08/06 02:46:28;;;;;;;;;2.00;2.00;;;;;16.94;67.43;100763.63;5056426;28;45531;-72
2023/08/06 02:48:54;;;;;;;;;2.00;2.00;;;;;16.87;67.65;100745.25;5039529;28;45651;-72
2023/08/06 02:51:20;;;;;;;;;3.00;3.00;;;;;16.90;67.70;100756.66;5038107;28;45595;-73
2023/08/06 02:53:47;;;;;;;;;3.67;2.33;;;;;16.92;67.09;100757.47;5038819;28;46130;-73
2023/08/06 02:56:12;;;;;;;;;3.00;3.00;;;;;16.97;67.08;100761.81;5039379;28;45421;-71
2023/08/06 02:58:38;;;;;;;;;4.00;2.33;;;;;16.91;66.93;100761.03;5039520;28;45505;-71
2023/08/06 03:01:06;;;;;;;;;4.00;2.67;;;;;16.99;66.70;100784.69;5039364;28;45441;-72
2023/08/06 03:03:33;;;;;;;;;2.00;2.00;;;;;16.97;66.64;100770.59;5054561;28;46100;-72
2023/08/06 03:05:58;;;;;;;;;1.67;1.67;;;;;16.92;66.53;100764.56;5039378;28;45503;-72
2023/08/06 03:08:24;;;;;;;;;4.67;2.33;;;;;17.02;66.23;100778.44;5038412;28;45567;-71
2023/08/06 03:10:50;;;;;;;;;1.00;1.00;;;;;17.01;65.96;100781.97;5039430;28;45510;-73
2023/08/06 03:13:16;;;;;;;;;3.00;3.00;;;;;16.91;65.88;100771.59;5038991;28;46689;-72
2023/08/06 03:15:43;;;;;;;;;3.33;2.00;;;;;16.94;65.85;100775.94;5039387;28;45538;-73
2023/08/06 03:18:08;;;;;;;;;2.33;2.00;;;;;17.07;65.85;100795.06;5040290;28;45489;-73
2023/08/06 03:20:34;;;;;;;;;3.33;2.33;;;;;16.98;65.62;100782.91;5038997;28;45468;-72
2023/08/06 03:22:59;;;;;;;;;5.00;3.67;;;;;16.99;65.67;100774.09;5037944;28;45451;-72
2023/08/06 03:25:25;;;;;;;;;3.67;3.33;;;;;17.07;65.48;100801.22;5039117;28;45395;-71
2023/08/06 03:27:50;;;;;;;;;2.33;2.33;;;;;16.90;65.33;100775.16;5040685;28;45575;-72
2023/08/06 03:30:17;;;;;;;;;5.33;2.00;;;;;16.99;65.62;100787.31;5039334;28;45321;-73
2023/08/06 03:32:42;;;;;;;;;4.00;2.00;;;;;16.86;65.85;100762.91;5038951;28;46689;-74
2023/08/06 03:35:08;;;;;;;;;2.00;2.00;;;;;17.00;65.56;100798.75;5038908;28;45317;-72
2023/08/06 03:37:33;;;;;;;;;4.00;3.00;;;;;16.95;65.51;100789.16;5053666;28;45374;-73
2023/08/06 03:39:59;;;;;;;;;2.67;2.67;;;;;16.96;65.52;100797.94;5038857;28;45452;-72
2023/08/06 03:42:24;;;;;;;;;2.33;2.00;;;;;16.93;65.65;100792.75;5053905;28;47932;-71
2023/08/06 03:44:50;;;;;;;;;5.33;3.33;;;;;16.85;65.78;100785.00;5038804;28;45499;-72
2023/08/06 03:47:15;;;;;;;;;1.67;1.00;;;;;16.93;65.98;100805.97;5036990;28;45388;-72
2023/08/06 03:49:41;;;;;;;;;2.00;2.00;;;;;16.86;65.94;100789.38;5038914;28;45508;-71
2023/08/06 03:52:07;;;;;;;;;4.33;3.67;;;;;16.78;66.09;100777.22;5038105;28;46651;-72
2023/08/06 03:54:32;;;;;;;;;3.00;3.00;;;;;16.84;66.09;100792.94;5037575;28;45762;-72
2023/08/06 03:56:58;;;;;;;;;5.67;3.00;;;;;16.79;66.02;100781.59;5039001;28;45849;-72
2023/08/06 03:59:23;;;;;;;;;4.00;2.33;;;;;16.94;66.38;100811.25;5038700;28;45491;-72
2023/08/06 04:01:49;;;;;;;;;6.67;3.00;;;;;16.93;65.91;100817.41;5038232;28;46111;-71
2023/08/06 04:04:14;;;;;;;;;4.00;4.00;;;;;16.95;65.73;100814.75;5038084;28;45416;-71
2023/08/06 04:06:40;;;;;;;;;3.00;3.00;;;;;16.84;65.91;100800.88;5038742;28;45234;-71
2023/08/06 04:09:06;;;;;;;;;4.67;2.00;;;;;16.79;65.85;100786.91;5039391;28;45321;-71
2023/08/06 04:11:31;;;;;;;;;4.00;3.67;;;;;16.95;65.48;100827.97;5037888;28;46022;-71
2023/08/06 04:13:57;;;;;;;;;3.00;3.00;;;;;16.97;65.60;100828.81;5039034;28;45559;-71
2023/08/06 04:16:23;;;;;;;;;5.33;3.33;;;;;16.81;65.20;100814.19;5038987;28;45499;-70
2023/08/06 04:18:48;;;;;;;;;5.00;4.00;;;;;16.94;65.03;100840.34;5038307;28;45255;-71
2023/08/06 04:21:20;;;;;;;;;4.67;4.00;;;;;16.94;65.14;100855.31;5054891;28;46845;-71
2023/08/06 04:23:46;;;;;;;;;4.33;3.33;;;;;16.95;65.06;100854.44;5039097;28;45428;-71
2023/08/06 04:26:12;;;;;;;;;3.00;2.00;;;;;16.95;64.71;100868.53;5039930;28;45449;-73
2023/08/06 04:28:38;;;;;;;;;3.00;3.00;;;;;16.88;64.60;100855.47;5036648;28;45466;-70
2023/08/06 04:31:03;;;;;;;;;4.67;3.00;;;;;16.94;64.25;100881.78;5037632;28;45720;-73
2023/08/06 04:33:29;;;;;;;;;3.00;3.00;;;;;16.89;64.61;100873.06;5037539;28;45503;-70
2023/08/06 04:35:55;;;;;;;;;4.00;4.00;;;;;16.88;64.25;100868.69;5037814;28;45476;-70
2023/08/06 04:38:22;;;;;;;;;2.67;2.67;;;;;16.88;64.31;100892.50;5036669;28;45378;-71
2023/08/06 04:40:48;;;;;;;;;4.00;2.67;;;;;16.86;64.30;100881.09;5037730;28;46241;-71
2023/08/06 04:43:14;;;;;;;;;4.00;3.33;;;;;16.74;64.24;100871.59;5038470;28;45388;-70
2023/08/06 04:45:46;;;;;;;;;4.67;3.33;;;;;16.16;64.08;100767.97;5037661;28;45308;-73
2023/08/06 04:48:12;;;;;;;;;3.00;2.67;;;;;16.62;64.24;100859.50;5038064;28;45704;-72
2023/08/06 04:50:38;;;;;;;;;3.00;3.00;;;;;16.65;64.43;100870.00;5035730;28;47060;-73
2023/08/06 04:53:03;;;;;;;;;4.00;4.00;;;;;16.83;63.91;100897.91;5037855;28;45577;-72
2023/08/06 04:55:29;;;;;;;;;3.00;3.00;;;;;16.67;63.87;100884.06;5037444;28;45366;-72
2023/08/06 04:57:54;;;;;;;;;3.00;3.00;;;;;16.75;64.20;100905.06;5038526;28;45469;-73
2023/08/06 05:00:20;;;;;;;;;6.33;3.00;;;;;16.85;63.71;100924.34;5037249;28;45447;-72
2023/08/06 05:02:46;;;;;;;;;5.00;4.00;;;;;16.80;63.88;100918.22;5038010;28;45476;-73
2023/08/06 05:05:11;;;;;;;;;4.00;3.33;;;;;16.27;63.91;100837.28;5037025;28;45586;-74
2023/08/06 05:07:37;;;;;;;;;3.67;3.67;;;;;16.69;64.35;100907.88;5039441;28;45473;-76
2023/08/06 05:10:04;;;;;;;;;3.67;3.67;;;;;16.57;64.23;100886.97;5040083;28;45608;-75
2023/08/06 05:12:30;;;;;;;;;4.00;3.00;;;;;16.52;64.30;100879.13;5045555;28;45524;-73
2023/08/06 05:14:56;;;;;;;;;4.00;2.00;;;;;16.90;64.07;100925.97;5041225;28;45400;-74
2023/08/06 05:17:23;;;;;;;;;2.67;2.67;;;;;16.69;63.58;100902.56;5038151;28;45401;-74
2023/08/06 05:19:48;;;;;;;;;4.67;3.00;;;;;16.93;64.13;100949.69;5037819;28;45601;-73
2023/08/06 05:22:14;;;;;;;;;3.33;3.33;;;;;16.92;63.68;100937.38;5036932;28;45416;-72
2023/08/06 05:24:39;;;;;;;;;4.67;3.00;;;;;16.34;64.08;100843.34;5036979;28;45503;-73
2023/08/06 05:27:05;;;;;;;;;2.33;2.33;;;;;16.92;63.87;100945.31;5037525;28;45364;-74
2023/08/06 05:29:31;;;;;;;;;5.00;3.00;;;;;16.82;63.85;100903.22;5038266;28;46107;-75
2023/08/06 05:31:56;;;;;;;;;2.00;2.00;;;;;16.79;63.71;100929.72;5052798;28;45564;-76
2023/08/06 05:34:22;;;;;;;;;6.00;3.00;;;;;16.79;64.12;100949.13;5037027;28;45505;-73
2023/08/06 05:36:47;;;;;;;;;2.67;2.33;;;;;16.72;63.75;100924.53;5052261;28;45481;-74
2023/08/06 05:39:13;;;;;;;;;2.67;2.67;;;;;16.30;63.96;100868.09;5037006;28;45277;-76
2023/08/06 05:41:38;;;;;;;;;2.00;2.00;;;;;16.58;64.23;100912.50;5037912;28;45452;-76
2023/08/06 05:44:04;;;;;;;;;3.67;2.00;;;;;16.47;64.04;100908.28;5028350;28;45412;-75
2023/08/06 05:46:29;;;;;;;;;3.33;3.00;;;;;16.83;64.46;100974.63;5036753;28;45473;-76
2023/08/06 05:48:55;;;;;;;;;2.67;2.67;;;;;16.87;64.42;100986.88;5036816;28;46174;-74
2023/08/06 05:51:21;;;;;;;;;2.33;2.33;;;;;16.66;64.64;100932.59;5036258;28;45586;-74
2023/08/06 05:53:49;;;;;;;;;5.00;3.00;;;;;17.04;64.60;100998.91;5035846;28;45602;-73
2023/08/06 05:56:15;;;;;;;;;2.67;2.33;;;;;16.45;64.37;100901.28;5051958;28;45549;-75
2023/08/06 05:58:40;;;;;;;;;5.67;4.33;;;;;16.92;64.43;100982.38;5035904;28;45511;-76
2023/08/06 06:01:06;;;;;;;;;5.00;3.33;;;;;16.84;64.33;100970.19;5035309;28;45347;-76
2023/08/06 06:03:32;;;;;;;;;3.67;2.00;;;;;16.75;64.48;100971.19;5037168;28;45459;-74
2023/08/06 06:05:58;;;;;;;;;4.67;3.67;;;;;17.02;64.49;101025.38;5037286;28;45589;-75
2023/08/06 06:08:24;;;;;;;;;2.67;2.33;;;;;16.86;64.57;100986.91;5035995;28;46192;-73
2023/08/06 06:10:49;;;;;;;;;3.67;3.00;;;;;16.90;64.50;100989.47;5052023;28;45568;-75
2023/08/06 06:13:15;;;;;;;;;4.00;2.67;;;;;16.93;64.59;100997.31;5036193;28;45434;-75
2023/08/06 06:15:40;;;;;;;;;1.67;1.67;;;;;17.12;64.31;101023.41;5051972;28;45438;-75
2023/08/06 06:18:06;;;;;;;;;3.33;2.33;;;;;17.13;64.50;101030.44;5034826;28;45533;-75
2023/08/06 06:20:32;;;;;;;;;6.67;3.00;;;;;16.99;64.05;101001.63;5035938;28;45413;-75
2023/08/06 06:22:58;;;;;;;;;2.67;2.67;;;;;17.21;64.13;101032.97;5036192;28;45422;-75
2023/08/06 06:25:24;;;;;;;;;4.00;2.00;;;;;16.90;63.82;100978.00;5035744;28;45484;-72
2023/08/06 06:27:49;;;;;;;;;2.00;1.67;;;;;17.14;63.76;101022.47;5036189;28;46331;-74
2023/08/06 06:30:16;;;;;;;;;5.00;3.00;;;;;16.70;63.52;100943.97;5036021;28;45459;-75
2023/08/06 06:32:42;;;;;;;;;1.67;1.67;;;;;17.43;62.98;101058.06;5051297;28;45445;-74
2023/08/06 06:35:08;;;;;;;;;2.00;2.00;;;;;17.06;62.73;100979.44;5035464;28;45440;-73
2023/08/06 06:37:34;;;;;;;;;1.67;1.67;;;;;17.38;62.21;101033.47;5035754;28;45940;-74
2023/08/06 06:39:59;;;;;;;;;4.67;2.00;;;;;17.08;62.17;100979.38;5035665;28;45508;-75
2023/08/06 06:42:25;;;;;;;;;3.00;2.00;;;;;16.82;61.89;100954.34;5036206;28;45809;-75
2023/08/06 06:44:51;;;;;;;;;2.00;1.00;;;;;17.00;61.68;100966.31;5036320;28;45424;-74
2023/08/06 06:47:16;;;;;;;;;4.67;2.33;;;;;17.26;61.55;101001.97;5035330;28;45447;-73
2023/08/06 06:49:42;;;;;;;;;2.00;2.00;;;;;17.68;61.44;101084.03;5035777;28;45565;-72
2023/08/06 06:52:08;;;;;;;;;2.00;2.00;;;;;17.68;61.12;101073.44;5036268;28;45500;-73
2023/08/06 06:54:33;;;;;;;;;2.00;2.00;;;;;17.65;61.20;101087.59;5036369;28;45545;-73
2023/08/06 06:56:59;;;;;;;;;1.67;1.67;;;;;17.22;60.91;101013.50;5034029;28;47213;-75
2023/08/06 06:59:24;;;;;;;;;3.00;3.00;;;;;17.33;61.49;101025.63;5036618;28;45279;-74
2023/08/06 07:01:50;;;;;;;;;2.00;2.00;;;;;17.20;61.09;101000.28;5035402;28;45530;-74
2023/08/06 07:04:15;;;;;;;;;6.33;1.33;;;;;17.38;60.56;101012.28;5032708;28;45339;-75
2023/08/06 07:06:41;;;;;;;;;1.33;1.00;;;;;17.88;60.56;101050.03;5035744;28;45355;-74
2023/08/06 07:09:07;;;;;;;;;2.00;2.00;;;;;17.77;59.79;100991.97;5035859;28;45494;-74
2023/08/06 07:11:32;;;;;;;;;2.00;2.00;;;;;18.41;59.29;101079.69;5035597;28;45287;-74
2023/08/06 07:13:58;;;;;;;;;2.33;1.67;;;;;18.57;57.64;101082.81;5037307;28;45600;-74
2023/08/06 07:16:26;;;;;;;;;1.00;1.00;;;;;18.68;56.91;101097.59;5039027;28;45490;-74
2023/08/06 07:18:53;;;;;;;;;2.67;1.67;;;;;18.80;55.77;101099.97;5053812;28;45519;-74
2023/08/06 07:21:19;;;;;;;;;2.67;1.00;;;;;18.33;55.84;101023.31;5039465;28;45481;-74
2023/08/06 07:23:45;;;;;;;;;0.67;0.67;;;;;18.39;55.12;101017.00;5038991;28;45449;-75
2023/08/06 07:26:11;;;;;;;;;3.00;1.33;;;;;18.32;55.81;101021.59;5038145;28;45550;-74
2023/08/06 07:28:36;;;;;;;;;2.00;2.00;;;;;18.36;56.49;101025.00;5037342;28;45417;-74
2023/08/06 07:31:03;;;;;;;;;2.00;2.00;;;;;18.73;55.69;101070.03;5038580;28;46650;-73
2023/08/06 07:33:28;;;;;;;;;2.00;2.00;;;;;19.08;55.24;101097.44;5037987;28;45481;-73
2023/08/06 07:35:54;;;;;;;;;1.00;1.00;;;;;18.75;54.58;101032.84;5036808;28;46173;-73
2023/08/06 07:38:20;;;;;;;;;3.00;1.00;;;;;19.04;53.88;101087.81;5038731;28;45405;-75
2023/08/06 07:40:46;;;;;;;;;2.67;1.00;;;;;19.26;53.69;101101.34;5039135;28;45513;-74
2023/08/06 07:43:11;;;;;;;;;1.67;1.00;;;;;18.76;53.52;101010.69;5038075;28;45893;-74
2023/08/06 07:45:38;;;;;;;;;2.00;2.00;;;;;18.93;53.05;101028.84;5039207;28;45511;-75
2023/08/06 07:48:04;;;;;;;;;2.00;2.00;;;;;19.53;52.63;101131.59;5038473;28;45576;-73
2023/08/06 07:50:30;;;;;;;;;2.67;2.67;;;;;19.06;51.50;101015.16;5038433;28;45370;-75
2023/08/06 07:52:55;;;;;;;;;5.00;2.00;;;;;19.28;51.04;101075.63;5055062;28;46021;-73
2023/08/06 07:55:21;;;;;;;;;2.00;2.00;;;;;19.13;50.99;101071.63;5038040;28;45366;-72
2023/08/06 07:57:46;;;;;;;;;4.00;3.00;;;;;18.77;50.80;100991.22;5038150;28;45368;-72
2023/08/06 08:00:12;;;;;;;;;3.00;1.00;;;;;19.36;49.44;101081.59;5037179;28;45289;-72
2023/08/06 08:02:38;;;;;;;;;5.00;2.67;;;;;19.51;49.52;101117.47;5038123;28;45618;-73
2023/08/06 08:05:03;;;;;;;;;2.67;1.67;;;;;19.72;49.71;101139.91;5052897;28;47590;-72
2023/08/06 08:07:30;;;;;;;;;3.00;2.00;;;;;19.51;49.35;101103.31;5038313;28;45607;-73
2023/08/06 08:09:56;;;;;;;;;4.00;2.00;;;;;18.96;48.23;101000.44;5038730;28;45430;-72
2023/08/06 08:12:22;;;;;;;;;2.00;1.67;;;;;19.58;48.37;101113.72;5039816;28;45447;-72
2023/08/06 08:14:48;;;;;;;;;1.67;1.67;;;;;19.87;48.69;101141.25;5031141;28;46684;-73
2023/08/06 08:17:13;;;;;;;;;2.00;1.00;;;;;19.99;47.53;101142.66;5036506;28;45476;-72
2023/08/06 08:19:40;;;;;;;;;2.00;2.00;;;;;19.63;47.34;101089.66;5051643;28;45552;-72
2023/08/06 08:22:06;;;;;;;;;3.33;2.33;;;;;19.99;47.21;101138.19;5034300;28;45867;-71
2023/08/06 08:24:31;;;;;;;;;1.33;1.33;;;;;19.44;48.00;101047.69;5034765;28;45481;-73
2023/08/06 08:26:57;;;;;;;;;2.00;2.00;;;;;19.67;48.16;101104.56;5036192;28;45504;-72
2023/08/06 08:29:22;;;;;;;;;2.00;2.00;;;;;19.46;48.37;101088.38;5039886;28;45441;-71
2023/08/06 08:31:50;;;;;;;;;2.00;2.00;;;;;19.33;48.22;101081.66;5043077;28;45317;-72
2023/08/06 08:34:19;;;;;;;;;1.00;1.00;;;;;19.39;47.57;101093.91;5057483;28;47578;-72
2023/08/06 08:36:47;;;;;;;;;3.00;2.00;;;;;19.83;47.15;101151.06;5039548;28;45450;-75
2023/08/06 08:39:13;;;;;;;;;3.00;2.00;;;;;20.03;49.05;101170.91;5036182;28;45498;-75
2023/08/06 08:41:39;;;;;;;;;4.00;3.00;;;;;19.44;46.92;101068.09;5036738;28;45399;-77
2023/08/06 08:44:11;;;;;;;;;3.00;2.00;;;;;20.16;48.17;101150.09;5035883;28;45502;-72
2023/08/06 08:46:41;;;;;;;;;3.33;1.67;;;;;20.18;47.84;101151.78;5034517;28;45326;-75
2023/08/06 08:49:07;;;;;;;;;4.67;2.00;;;;;20.17;47.30;101128.78;5036271;28;45927;-77
2023/08/06 08:51:35;;;;;;;;;3.00;3.00;;;;;20.38;47.05;101168.91;5035143;28;45462;-78
2023/08/06 08:54:03;;;;;;;;;4.67;2.67;;;;;20.16;46.88;101152.78;5035810;28;45810;-76
2023/08/06 08:56:28;;;;;;;;;3.00;2.67;;;;;20.18;46.82;101182.84;5035278;28;45402;-74
2023/08/06 08:58:55;;;;;;;;;2.00;1.67;;;;;20.05;47.04;101200.94;5033816;28;45520;-73
2023/08/06 09:01:22;;;;;;;;;2.00;1.33;;;;;19.59;47.20;101118.09;5038206;28;45596;-76
2023/08/06 09:03:48;;;;;;;;;5.00;2.00;;;;;19.82;48.16;101154.66;5036428;28;45696;-71
2023/08/06 09:06:14;;;;;;;;;1.33;1.33;;;;;19.98;49.47;101138.25;5050321;28;46028;-74
2023/08/06 09:08:47;;;;;;;;;2.00;2.00;;;;;20.36;47.74;101200.91;5039622;28;45327;-74
2023/08/06 09:11:13;;;;;;;;;2.67;1.00;;;;;20.18;46.16;101158.91;5037790;28;45838;-77
2023/08/06 09:13:39;;;;;;;;;2.00;1.67;;;;;19.97;45.70;101124.09;5029521;28;45478;-77
2023/08/06 09:16:04;;;;;;;;;2.00;2.00;;;;;20.45;44.96;101197.94;5040893;28;45408;-76
2023/08/06 09:18:31;;;;;;;;;3.00;3.00;;;;;20.53;45.16;101209.22;5040451;28;45389;-73
2023/08/06 09:20:57;;;;;;;;;2.00;2.00;;;;;20.56;45.44;101204.75;5039495;28;45493;-77
2023/08/06 09:23:33;;;;;;;;;5.00;2.33;;;;;20.51;45.71;101202.19;5039085;28;46339;-73
2023/08/06 09:25:59;;;;;;;;;2.00;1.00;;;;;20.48;45.42;101211.16;5038061;28;45315;-76
2023/08/06 09:28:36;;;;;;;;;1.00;1.00;;;;;19.99;50.00;101155.94;5036129;28;45404;-72
2023/08/06 09:31:01;;;;;;;;;3.00;3.00;;;;;20.39;48.95;101221.22;5037132;28;45490;-71
2023/08/06 09:33:29;;;;;;;;;2.67;2.67;;;;;20.09;47.06;101150.28;5038361;28;46036;-80
2023/08/06 09:35:55;;;;;;;;;3.00;1.00;;;;;20.58;45.94;101209.09;5039118;28;45373;-75
2023/08/06 09:38:20;;;;;;;;;3.00;1.00;;;;;20.47;45.25;101187.25;5037058;28;45432;-78
2023/08/06 09:40:47;;;;;;;;;2.67;1.00;;;;;20.17;45.35;101107.53;5039334;28;45415;-81
2023/08/06 09:43:13;;;;;;;;;3.00;1.67;;;;;20.73;45.32;101189.97;5054661;28;45515;-78
2023/08/06 09:45:39;;;;;;;;;3.00;2.33;;;;;20.92;45.24;101221.31;5040344;28;45735;-81
2023/08/06 09:48:07;;;;;;;;;3.33;2.00;;;;;20.93;45.11;101213.28;5042301;28;45321;-78
2023/08/06 09:50:37;;;;;;;;;2.67;2.67;;;;;20.67;44.54;101174.22;5040442;28;45540;-77
2023/08/06 09:53:08;;;;;;;;;3.33;2.00;;;;;20.86;45.53;101197.56;5038944;28;46172;-79
2023/08/06 09:55:34;;;;;;;;;6.00;3.00;;;;;21.11;46.22;101222.41;5043097;28;45678;-75
2023/08/06 09:58:00;;;;;;;;;5.00;3.00;;;;;20.99;45.15;101180.22;5036711;28;45544;-72
2023/08/06 10:00:28;;;;;;;;;3.00;3.00;;;;;20.72;46.32;101137.66;5031924;28;45477;-76
2023/08/06 10:02:55;;;;;;;;;4.00;4.00;;;;;21.29;45.61;101220.06;5037205;28;46339;-76
2023/08/06 10:05:23;;;;;;;;;5.33;4.67;;;;;21.31;45.80;101218.22;5038047;28;45466;-74
2023/08/06 10:07:50;;;;;;;;;4.00;2.67;;;;;21.34;44.13;101221.63;5038838;28;45493;-74
2023/08/06 10:10:16;;;;;;;;;3.00;2.33;;;;;21.15;43.23;101178.78;5037220;28;45745;-75
2023/08/06 10:12:50;;;;;;;;;2.00;2.00;;;;;21.26;43.19;101209.50;5046707;28;46616;-79
2023/08/06 10:15:21;;;;;;;;;5.33;3.00;;;;;21.27;43.36;101203.25;5036852;28;45496;-74
2023/08/06 10:17:50;;;;;;;;;3.00;3.00;;;;;21.42;43.13;101247.16;5037890;28;45466;-77
2023/08/06 10:20:15;;;;;;;;;2.33;2.33;;;;;21.22;42.94;101211.41;5038928;28;45388;-77
2023/08/06 10:22:45;;;;;;;;;3.00;3.00;;;;;21.24;42.85;101203.38;5037591;28;46100;-74
2023/08/06 10:25:10;;;;;;;;;2.00;2.00;;;;;21.05;42.96;101188.03;5037157;28;45521;-77
2023/08/06 10:27:48;;;;;;;;;3.00;3.00;;;;;21.48;42.05;101237.16;5037608;28;45464;-74
2023/08/06 10:30:31;;;;;;;;;6.33;3.33;;;;;21.14;41.46;101171.72;5039972;28;45414;-73
2023/08/06 10:33:00;;;;;;;;;3.00;2.00;;;;;21.20;41.08;101162.63;5036895;28;46095;-75
2023/08/06 10:35:44;;;;;;;;;6.67;3.33;;;;;21.60;41.76;101233.19;5038990;28;45388;-78
2023/08/06 10:38:25;;;;;;;;;3.00;3.00;;;;;21.03;42.42;101168.56;5053200;28;45425;-75
2023/08/06 10:40:57;;;;;;;;;3.00;3.00;;;;;21.52;42.00;101243.25;5023828;28;45428;-77
2023/08/06 10:43:29;;;;;;;;;1.67;1.33;;;;;21.20;40.64;101215.03;5035206;28;46896;-74
2023/08/06 10:45:57;;;;;;;;;3.00;2.00;;;;;20.97;41.43;101152.78;5036462;28;45432;-74
2023/08/06 10:48:36;;;;;;;;;2.00;2.00;;;;;21.42;41.29;101242.69;5038718;28;45466;-77
2023/08/06 10:51:04;;;;;;;;;1.00;1.00;;;;;21.45;41.51;101242.63;5040814;28;45452;-74
2023/08/06 10:53:30;;;;;;;;;1.67;1.33;;;;;21.64;41.51;101245.50;5040516;28;46486;-73
2023/08/06 10:55:56;;;;;;;;;2.00;2.00;;;;;21.83;41.64;101250.13;5052783;28;45692;-75
2023/08/06 10:58:21;;;;;;;;;2.00;1.00;;;;;21.56;41.51;101176.44;5034654;28;45386;-78
2023/08/06 11:00:47;;;;;;;;;3.00;2.00;;;;;22.11;40.76;101255.31;5040052;28;45568;-77
2023/08/06 11:03:12;;;;;;;;;4.00;2.00;;;;;22.26;40.34;101257.44;5039355;28;45306;-72
2023/08/06 11:05:39;;;;;;;;;2.00;2.00;;;;;21.91;39.74;101179.59;5039671;28;45479;-75
2023/08/06 11:08:05;;;;;;;;;5.67;1.33;;;;;22.31;40.01;101250.13;5054842;28;45474;-72
2023/08/06 11:10:33;;;;;;;;;2.00;2.00;;;;;22.25;40.81;101253.03;5038201;28;45539;-73
2023/08/06 11:13:03;;;;;;;;;2.00;2.00;;;;;22.39;39.88;101253.34;5038875;28;46457;-77
2023/08/06 11:15:30;;;;;;;;;1.00;1.00;;;;;22.36;39.82;101258.81;5039443;28;45326;-75
2023/08/06 11:17:56;;;;;;;;;1.00;1.00;;;;;22.40;40.06;101248.88;5039747;28;45428;-75
2023/08/06 11:20:22;;;;;;;;;1.00;1.00;;;;;22.49;39.62;101250.31;5039617;28;45339;-73
2023/08/06 11:22:48;;;;;;;;;2.50;1.25;;;;;22.19;40.16;101190.06;5039480;28;45566;-75
2023/08/06 11:25:13;;;;;;;;;1.00;1.00;;;;;22.51;39.66;101238.66;5039525;28;45936;-78
2023/08/06 11:27:39;;;;;;;;;1.00;1.00;;;;;22.32;40.09;101214.50;5041602;28;45843;-77